createdAt,value
2022-10-10T00:02:13.399Z,14.52
2022-10-10T00:05:02.914Z,10.60
2022-10-10T00:07:53.395Z,11.95
2022-10-10T00:10:42.875Z,10.05
2022-10-10T00:13:32.301Z,13.05
2022-10-10T00:16:22.141Z,12.40
2022-10-10T00:19:11.345Z,9.98
2022-10-10T00:22:00.826Z,10.95
2022-10-10T00:24:51.771Z,15.05
2022-10-10T00:27:41.050Z,9.98
2022-10-10T00:30:30.350Z,11.27
2022-10-10T00:33:19.379Z,12.68
2022-10-10T00:36:09.415Z,14.57
2022-10-10T00:38:58.802Z,13.23
2022-10-10T00:41:49.809Z,9.52
2022-10-10T00:44:39.195Z,11.27
2022-10-10T00:47:28.271Z,11.75
2022-10-10T00:50:17.823Z,15.50
2022-10-10T00:53:08.284Z,9.85
2022-10-10T00:55:57.785Z,9.50
2022-10-10T00:58:49.943Z,15.77
2022-10-10T01:01:39.188Z,10.45
2022-10-10T01:04:32.852Z,9.05
2022-10-10T01:07:24.218Z,10.60
2022-10-10T01:10:14.661Z,10.20
2022-10-10T01:13:11.550Z,10.65
2022-10-10T01:16:07.614Z,15.65
2022-10-10T01:19:00.698Z,8.70
2022-10-10T01:21:54.623Z,13.05
2022-10-10T01:24:57.533Z,9.80
2022-10-10T01:27:49.013Z,11.55
2022-10-10T01:30:40.258Z,13.30
2022-10-10T01:33:32.484Z,8.90
2022-10-10T01:36:25.271Z,8.43
2022-10-10T01:39:18.912Z,11.85
2022-10-10T01:42:12.320Z,7.40
2022-10-10T01:45:01.556Z,11.25
2022-10-10T01:47:53.114Z,12.00
2022-10-10T01:50:47.503Z,10.77
2022-10-10T01:53:40.785Z,13.30
2022-10-10T01:56:33.240Z,10.00
2022-10-10T01:59:31.476Z,8.23
2022-10-10T02:02:24.138Z,10.02
2022-10-10T02:05:18.185Z,10.52
2022-10-10T02:08:09.966Z,12.02
2022-10-10T02:11:02.061Z,7.82
2022-10-10T02:13:52.025Z,7.25
2022-10-10T02:16:42.142Z,7.40
2022-10-10T02:19:32.174Z,8.93
2022-10-10T02:22:23.154Z,7.18
2022-10-10T02:25:12.887Z,10.60
2022-10-10T02:28:08.124Z,10.27
2022-10-10T02:30:58.417Z,9.32
2022-10-10T02:33:49.124Z,10.15
2022-10-10T02:36:38.499Z,9.00
2022-10-10T02:39:31.261Z,7.05
2022-10-10T02:42:21.540Z,7.47
2022-10-10T02:45:11.635Z,8.65
2022-10-10T02:48:01.123Z,10.40
2022-10-10T02:50:50.426Z,8.57
2022-10-10T02:53:40.246Z,5.43
2022-10-10T02:56:30.895Z,6.45
2022-10-10T02:59:20.510Z,7.32
2022-10-10T03:02:09.636Z,6.65
2022-10-10T03:04:59.358Z,7.78
2022-10-10T03:07:48.798Z,9.55
2022-10-10T03:10:38.559Z,5.90
2022-10-10T03:13:29.490Z,6.80
2022-10-10T03:16:18.759Z,8.48
2022-10-10T03:19:08.843Z,8.88
2022-10-10T03:21:57.898Z,9.18
2022-10-10T03:24:47.441Z,7.40
2022-10-10T03:27:36.626Z,6.15
2022-10-10T03:30:27.216Z,7.10
2022-10-10T03:33:16.681Z,7.03
2022-10-10T03:36:06.014Z,6.63
2022-10-10T03:38:55.358Z,9.52
2022-10-10T03:41:44.535Z,8.02
2022-10-10T03:44:33.255Z,11.38
2022-10-10T03:47:24.061Z,4.88
2022-10-10T03:50:13.360Z,8.57
2022-10-10T03:53:02.454Z,10.73
2022-10-10T03:55:51.307Z,7.47
2022-10-10T03:58:40.679Z,6.60
2022-10-10T04:01:30.377Z,6.15
2022-10-10T04:04:20.887Z,10.77
2022-10-10T04:07:09.911Z,9.93
2022-10-10T04:09:58.911Z,7.72
2022-10-10T04:12:48.313Z,6.10
2022-10-10T04:15:37.851Z,7.15
2022-10-10T04:18:27.583Z,8.40
2022-10-10T04:21:18.419Z,7.25
2022-10-10T04:24:07.802Z,8.23
2022-10-10T04:26:56.535Z,8.25
2022-10-10T04:29:46.023Z,6.97
2022-10-10T04:32:34.997Z,8.55
2022-10-10T04:35:23.792Z,8.20
2022-10-10T04:38:14.442Z,6.10
2022-10-10T04:41:03.702Z,8.43
2022-10-10T04:43:52.853Z,6.18
2022-10-10T04:46:42.093Z,7.00
2022-10-10T04:49:31.451Z,8.85
2022-10-10T04:52:20.565Z,6.20
2022-10-10T04:55:11.412Z,9.25
2022-10-10T04:58:00.439Z,6.65
2022-10-10T05:00:53.208Z,7.03
2022-10-10T05:03:42.317Z,9.27
2022-10-10T05:06:31.384Z,5.53
2022-10-10T05:09:20.595Z,7.65
2022-10-10T05:12:10.995Z,6.28
2022-10-10T05:15:00.195Z,6.82
2022-10-10T05:17:49.526Z,5.65
2022-10-10T05:20:38.635Z,10.80
2022-10-10T05:23:27.528Z,10.25
2022-10-10T05:26:16.614Z,7.90
2022-10-10T05:29:08.148Z,7.32
2022-10-10T05:31:57.042Z,7.60
2022-10-10T05:34:46.118Z,8.30
2022-10-10T05:37:35.340Z,9.63
2022-10-10T05:40:24.335Z,6.50
2022-10-10T05:43:13.498Z,5.68
2022-10-10T05:46:03.823Z,8.40
2022-10-10T05:48:53.556Z,9.00
2022-10-10T05:51:42.801Z,8.43
2022-10-10T05:54:32.065Z,8.30
2022-10-10T05:57:21.406Z,8.77
2022-10-10T06:00:11.190Z,7.28
2022-10-10T06:03:02.703Z,8.45
2022-10-10T06:05:55.086Z,11.27
2022-10-10T06:08:44.324Z,7.22
2022-10-10T06:11:33.995Z,7.63
2022-10-10T06:14:23.740Z,6.47
2022-10-10T06:17:13.176Z,5.47
2022-10-10T06:20:03.887Z,7.60
2022-10-10T06:22:53.714Z,7.40
2022-10-10T06:25:43.821Z,8.50
2022-10-10T06:28:33.027Z,7.00
2022-10-10T06:31:22.453Z,8.27
2022-10-10T06:34:11.529Z,7.88
2022-10-10T06:37:01.841Z,7.93
2022-10-10T06:39:51.358Z,7.28
2022-10-10T06:42:40.326Z,7.85
2022-10-10T06:45:31.131Z,8.07
2022-10-10T06:48:20.787Z,6.72
2022-10-10T06:51:10.735Z,6.95
2022-10-10T06:54:01.427Z,5.97
2022-10-10T06:56:50.938Z,7.15
2022-10-10T06:59:39.958Z,9.23
2022-10-10T07:02:29.164Z,6.35
2022-10-10T07:05:19.838Z,8.18
2022-10-10T07:08:09.265Z,6.03
2022-10-10T07:11:00.013Z,6.80
2022-10-10T07:13:51.047Z,6.22
2022-10-10T07:16:40.797Z,9.38
2022-10-10T07:19:30.327Z,9.93
2022-10-10T07:22:19.832Z,8.45
2022-10-10T07:25:09.479Z,7.45
2022-10-10T07:28:00.207Z,6.75
2022-10-10T07:30:49.455Z,7.47
2022-10-10T07:33:39.694Z,7.93
2022-10-10T07:36:29.266Z,10.77
2022-10-10T07:39:20.910Z,8.73
2022-10-10T07:42:10.281Z,6.80
2022-10-10T07:45:01.509Z,12.32
2022-10-10T07:47:50.925Z,8.15
2022-10-10T07:50:42.710Z,9.52
2022-10-10T07:53:31.615Z,6.53
2022-10-10T07:56:21.004Z,6.32
2022-10-10T07:59:10.356Z,5.90
2022-10-10T08:02:01.308Z,7.55
2022-10-10T08:04:50.392Z,6.78
2022-10-10T08:07:39.582Z,5.82
2022-10-10T08:10:29.273Z,5.45
2022-10-10T08:13:18.369Z,7.97
2022-10-10T08:16:07.829Z,7.43
2022-10-10T08:18:58.712Z,5.60
2022-10-10T08:21:48.170Z,5.50
2022-10-10T08:24:37.536Z,6.65
2022-10-10T08:27:26.676Z,5.57
2022-10-10T08:30:16.087Z,5.68
2022-10-10T08:33:05.299Z,7.47
2022-10-10T08:35:56.079Z,10.93
2022-10-10T08:38:45.853Z,7.47
2022-10-10T08:41:38.612Z,8.75
2022-10-10T08:44:30.868Z,7.13
2022-10-10T08:47:21.818Z,7.50
2022-10-10T08:50:16.823Z,8.02
2022-10-10T08:53:09.567Z,9.63
2022-10-10T08:56:00.907Z,6.78
2022-10-10T08:58:52.347Z,5.65
2022-10-10T09:02:18.622Z,7.25
2022-10-10T09:04:51.260Z,10.88
2022-10-10T09:07:47.873Z,8.18
2022-10-10T09:10:42.958Z,9.32
2022-10-10T09:13:34.317Z,6.43
2022-10-10T09:16:26.098Z,9.05
2022-10-10T09:19:24.765Z,7.88
2022-10-10T09:22:15.487Z,7.35
2022-10-10T09:25:07.079Z,7.57
2022-10-10T09:28:01.254Z,7.55
2022-10-10T09:30:53.298Z,6.93
2022-10-10T09:33:43.943Z,6.85
2022-10-10T09:36:34.718Z,7.13
2022-10-10T09:39:29.891Z,8.32
2022-10-10T09:42:21.123Z,7.45
2022-10-10T09:45:18.605Z,7.78
2022-10-10T09:48:10.381Z,6.78
2022-10-10T09:50:59.763Z,7.25
2022-10-10T09:53:50.079Z,7.85
2022-10-10T09:56:45.043Z,6.93
2022-10-10T09:59:42.305Z,8.70
2022-10-10T10:02:33.149Z,6.45
2022-10-10T10:05:28.073Z,8.40
2022-10-10T10:08:38.359Z,7.20
2022-10-10T10:11:32.307Z,7.60
2022-10-10T10:14:29.555Z,9.48
2022-10-10T10:17:23.262Z,6.72
2022-10-10T10:20:33.584Z,8.68
2022-10-10T10:23:27.106Z,6.65
2022-10-10T10:26:22.229Z,10.00
2022-10-10T10:29:29.714Z,9.52
2022-10-10T10:32:31.439Z,6.88
2022-10-10T10:35:29.135Z,7.28
2022-10-10T10:38:32.331Z,8.48
2022-10-10T10:41:29.898Z,8.68
2022-10-10T10:44:32.251Z,9.13
2022-10-10T10:47:34.674Z,9.18
2022-10-10T10:50:46.200Z,8.02
2022-10-10T10:53:45.888Z,7.63
2022-10-10T10:56:39.537Z,8.07
2022-10-10T11:00:17.002Z,7.75
2022-10-10T11:03:20.926Z,8.95
2022-10-10T11:06:25.516Z,10.00
2022-10-10T11:09:44.874Z,8.90
2022-10-10T11:12:44.683Z,9.48
2022-10-10T11:16:04.840Z,8.18
2022-10-10T11:18:52.740Z,13.27
2022-10-10T11:21:51.206Z,6.45
2022-10-10T11:24:45.237Z,12.43
2022-10-10T11:27:41.350Z,9.52
2022-10-10T11:30:35.191Z,9.13
2022-10-10T11:33:28.178Z,7.70
2022-10-10T11:36:20.205Z,8.65
2022-10-10T11:39:17.342Z,6.90
2022-10-10T11:42:15.679Z,10.38
2022-10-10T11:45:08.321Z,8.43
2022-10-10T11:48:04.452Z,6.63
2022-10-10T11:50:59.454Z,11.15
2022-10-10T11:53:53.256Z,10.00
2022-10-10T11:56:46.569Z,7.70
2022-10-10T11:59:44.314Z,9.63
2022-10-10T12:02:36.530Z,10.23
2022-10-10T12:05:28.747Z,7.15
2022-10-10T12:08:22.930Z,8.93
2022-10-10T12:11:19.517Z,12.02
2022-10-10T12:14:14.977Z,11.32
2022-10-10T12:17:04.276Z,9.95
2022-10-10T12:19:54.255Z,9.02
2022-10-10T12:22:44.164Z,10.95
2022-10-10T12:25:42.328Z,8.27
2022-10-10T12:28:37.513Z,10.60
2022-10-10T12:31:38.666Z,8.43
2022-10-10T12:34:45.210Z,9.10
2022-10-10T12:37:35.081Z,9.23
2022-10-10T12:40:25.064Z,11.45
2022-10-10T12:43:25.760Z,9.18
2022-10-10T12:46:29.279Z,8.23
2022-10-10T12:49:26.328Z,9.77
2022-10-10T12:52:23.275Z,7.32
2022-10-10T12:55:23.032Z,8.68
2022-10-10T12:58:26.548Z,11.70
2022-10-10T13:01:25.887Z,8.35
2022-10-10T13:04:19.420Z,9.88
2022-10-10T13:07:14.444Z,9.90
2022-10-10T13:10:08.551Z,8.02
2022-10-10T13:13:01.833Z,8.95
2022-10-10T13:15:54.877Z,12.30
2022-10-10T13:18:50.357Z,7.60
2022-10-10T13:21:39.290Z,8.00
2022-10-10T13:24:33.324Z,6.32
2022-10-10T13:27:24.462Z,9.73
2022-10-10T13:30:20.488Z,10.98
2022-10-10T13:33:17.427Z,9.68
2022-10-10T13:36:09.081Z,8.63
2022-10-10T13:38:58.867Z,8.07
2022-10-10T13:41:49.955Z,10.88
2022-10-10T13:44:50.628Z,10.05
2022-10-10T13:47:55.302Z,11.45
2022-10-10T13:51:03.530Z,13.52
2022-10-10T13:53:54.819Z,10.00
2022-10-10T13:56:43.871Z,10.52
2022-10-10T13:59:35.576Z,9.60
2022-10-10T14:02:31.289Z,10.02
2022-10-10T14:05:28.014Z,11.60
2022-10-10T14:08:19.728Z,9.65
2022-10-10T14:11:10.131Z,11.80
2022-10-10T14:14:07.107Z,9.10
2022-10-10T14:17:02.776Z,12.45
2022-10-10T14:19:52.606Z,11.13
2022-10-10T14:22:41.314Z,8.48
2022-10-10T14:25:30.033Z,10.63
2022-10-10T14:28:21.834Z,9.18
2022-10-10T14:31:10.873Z,13.32
2022-10-10T14:34:01.597Z,10.18
2022-10-10T14:36:51.795Z,10.60
2022-10-10T14:39:41.027Z,8.60
2022-10-10T14:42:30.112Z,11.98
2022-10-10T14:45:19.842Z,8.68
2022-10-10T14:48:08.457Z,10.48
2022-10-10T14:50:58.767Z,8.45
2022-10-10T14:54:11.777Z,10.00
2022-10-10T14:57:07.378Z,7.95
2022-10-10T15:00:00.551Z,8.25
2022-10-10T15:02:49.984Z,8.73
2022-10-10T15:05:40.579Z,7.72
2022-10-10T15:08:31.169Z,8.13
2022-10-10T15:11:20.663Z,10.93
2022-10-10T15:14:09.729Z,8.18
2022-10-10T15:16:58.951Z,7.32
2022-10-10T15:19:47.951Z,10.75
2022-10-10T15:22:37.447Z,6.97
2022-10-10T15:25:33.458Z,6.55
2022-10-10T15:28:23.296Z,8.38
2022-10-10T15:31:12.593Z,6.40
2022-10-10T15:34:01.657Z,7.50
2022-10-10T15:36:51.338Z,8.05
2022-10-10T15:39:41.337Z,9.75
2022-10-10T15:42:31.639Z,9.93
2022-10-10T15:45:51.120Z,9.10
2022-10-10T15:48:29.658Z,15.45
2022-10-10T15:51:18.950Z,9.60
2022-10-10T15:54:08.308Z,11.90
2022-10-10T15:56:58.455Z,11.30
2022-10-10T15:59:49.492Z,8.07
2022-10-10T16:02:39.460Z,11.02
2022-10-10T16:05:29.281Z,9.48
2022-10-10T16:08:18.949Z,11.65
2022-10-10T16:11:08.953Z,12.95
2022-10-10T16:13:58.066Z,13.48
2022-10-10T16:16:48.674Z,10.88
2022-10-10T16:19:37.784Z,9.93
2022-10-10T16:22:26.771Z,9.80
2022-10-10T16:25:23.537Z,14.90
2022-10-10T16:28:12.989Z,13.93
2022-10-10T16:31:03.619Z,16.00
2022-10-10T16:33:56.598Z,11.95
2022-10-10T16:36:45.796Z,16.05
2022-10-10T16:39:35.021Z,11.05
2022-10-10T16:42:25.507Z,12.05
2022-10-10T16:45:14.880Z,12.10
2022-10-10T16:48:04.355Z,11.48
2022-10-10T16:50:55.016Z,13.73
2022-10-10T16:53:45.251Z,15.27
2022-10-10T16:56:38.132Z,11.10
2022-10-10T16:59:28.133Z,8.70
2022-10-10T17:02:17.250Z,12.07
2022-10-10T17:05:06.537Z,11.13
2022-10-10T17:07:56.930Z,9.25
2022-10-10T17:10:46.434Z,13.52
2022-10-10T17:13:36.279Z,9.18
2022-10-10T17:19:35.340Z,13.52
2022-10-10T17:22:24.165Z,16.20
2022-10-10T17:25:15.001Z,16.77
2022-10-10T17:28:03.519Z,10.20
2022-10-10T17:30:52.687Z,9.55
2022-10-10T17:33:41.880Z,12.85
2022-10-10T17:36:33.402Z,12.05
2022-10-10T17:39:22.741Z,12.73
2022-10-10T17:42:13.385Z,19.90
2022-10-10T17:45:02.233Z,13.77
2022-10-10T17:47:51.459Z,12.32
2022-10-10T17:50:40.573Z,15.65
2022-10-10T17:53:29.775Z,18.02
2022-10-10T17:56:22.887Z,13.55
2022-10-10T17:59:13.905Z,14.93
2022-10-10T18:02:06.245Z,14.10
2022-10-10T18:04:58.778Z,15.93
2022-10-10T18:07:48.543Z,11.75
2022-10-10T18:10:41.671Z,12.25
2022-10-10T18:13:31.095Z,11.77
2022-10-10T18:16:23.095Z,12.32
2022-10-10T18:19:12.851Z,16.85
2022-10-10T18:22:01.867Z,17.67
2022-10-10T18:24:51.914Z,17.90
2022-10-10T18:27:41.204Z,15.40
2022-10-10T18:30:30.663Z,12.98
2022-10-10T18:33:21.720Z,15.50
2022-10-10T18:36:11.685Z,14.57
2022-10-10T18:39:01.435Z,15.38
2022-10-10T18:41:50.817Z,14.80
2022-10-10T18:44:39.924Z,15.30
2022-10-10T18:47:28.967Z,13.10
2022-10-10T18:50:19.908Z,12.57
2022-10-10T18:53:09.217Z,14.38
2022-10-10T18:56:00.316Z,15.70
2022-10-10T18:58:49.460Z,12.32
2022-10-10T19:01:40.423Z,15.23
2022-10-10T19:04:29.886Z,13.63
2022-10-10T19:07:20.237Z,14.45
2022-10-10T19:10:10.075Z,15.75
2022-10-10T19:12:58.855Z,12.68
2022-10-10T19:15:50.259Z,17.75
2022-10-10T19:18:38.999Z,18.17
2022-10-10T19:21:30.276Z,12.68
2022-10-10T19:24:22.341Z,16.42
2022-10-10T19:27:11.512Z,22.75
2022-10-10T19:30:00.620Z,13.52
2022-10-10T19:32:50.210Z,16.67
2022-10-10T19:35:39.805Z,20.02
2022-10-10T19:38:29.814Z,17.73
2022-10-10T19:41:21.348Z,13.05
2022-10-10T19:44:10.311Z,12.98
2022-10-10T19:47:00.472Z,18.95
2022-10-10T19:49:49.566Z,14.40
2022-10-10T19:52:38.882Z,19.45
2022-10-10T19:55:28.109Z,16.48
2022-10-10T19:58:18.658Z,13.23
2022-10-10T20:01:08.810Z,15.25
2022-10-10T20:03:58.540Z,14.25
2022-10-10T20:06:47.880Z,16.73
2022-10-10T20:09:37.052Z,18.13
2022-10-10T20:12:29.670Z,15.75
2022-10-10T20:15:20.849Z,14.75
2022-10-10T20:18:10.007Z,15.13
2022-10-10T20:20:59.094Z,21.67
2022-10-10T20:23:49.653Z,20.15
2022-10-10T20:26:38.875Z,18.10
2022-10-10T20:29:28.305Z,19.20
2022-10-10T20:32:19.225Z,17.52
2022-10-10T20:35:09.659Z,18.10
2022-10-10T20:41:20.026Z,19.20
2022-10-10T20:44:16.083Z,15.77
2022-10-10T20:47:06.896Z,17.05
2022-10-10T20:49:57.466Z,16.77
2022-10-10T20:52:47.061Z,17.52
2022-10-10T20:55:36.768Z,16.73
2022-10-10T20:58:25.766Z,13.98
2022-10-10T21:01:19.421Z,20.35
2022-10-10T21:04:11.262Z,20.30
2022-10-10T21:07:02.161Z,18.27
2022-10-10T21:09:51.507Z,20.13
2022-10-10T21:12:41.020Z,16.00
2022-10-10T21:15:30.296Z,16.63
2022-10-10T21:18:19.678Z,14.55
2022-10-10T21:21:09.342Z,16.70
2022-10-10T21:24:00.009Z,14.68
2022-10-10T21:26:51.331Z,20.17
2022-10-10T21:29:40.808Z,20.42
2022-10-10T21:32:31.873Z,19.02
2022-10-10T21:35:24.859Z,18.67
2022-10-10T21:38:14.070Z,22.13
2022-10-10T21:41:09.337Z,23.75
2022-10-10T21:43:59.984Z,15.60
2022-10-10T21:46:49.941Z,19.80
2022-10-10T21:49:39.263Z,20.45
2022-10-10T21:52:28.562Z,19.08
2022-10-10T21:55:17.871Z,19.38
2022-10-10T21:58:08.397Z,19.58
2022-10-10T22:00:57.692Z,23.33
2022-10-10T22:03:47.442Z,19.15
2022-10-10T22:06:36.700Z,17.98
2022-10-10T22:09:25.994Z,21.17
2022-10-10T22:12:16.301Z,18.98
2022-10-10T22:15:07.536Z,19.15
2022-10-10T22:17:56.714Z,17.92
2022-10-10T22:20:46.099Z,16.50
2022-10-10T22:23:35.275Z,20.85
2022-10-10T22:26:25.946Z,24.30
2022-10-10T22:29:15.480Z,20.67
2022-10-10T22:32:06.653Z,24.65
2022-10-10T22:34:55.602Z,19.98
2022-10-10T22:37:44.364Z,22.30
2022-10-10T22:40:33.405Z,20.63
2022-10-10T22:43:26.820Z,19.83
2022-10-10T22:46:16.230Z,19.25
2022-10-10T22:49:06.684Z,19.52
2022-10-10T22:51:56.151Z,19.83
2022-10-10T22:54:45.330Z,21.00
2022-10-10T22:57:34.917Z,24.50
2022-10-10T23:00:24.125Z,18.83
2022-10-10T23:03:13.121Z,21.70
2022-10-10T23:06:03.963Z,21.33
2022-10-10T23:08:53.781Z,26.00
2022-10-10T23:11:42.532Z,19.02
2022-10-10T23:14:31.868Z,26.73
2022-10-10T23:17:21.202Z,22.05
2022-10-10T23:20:11.584Z,24.08
2022-10-10T23:23:02.008Z,24.48
2022-10-10T23:25:51.243Z,22.52
2022-10-10T23:28:40.991Z,23.27
2022-10-10T23:31:30.493Z,23.75
2022-10-10T23:34:19.405Z,24.85
2022-10-10T23:37:08.468Z,25.15
2022-10-10T23:39:58.984Z,22.60
2022-10-10T23:42:48.481Z,28.33
2022-10-10T23:45:37.705Z,23.63
2022-10-10T23:48:27.608Z,19.98
2022-10-10T23:51:17.378Z,18.13
2022-10-10T23:54:07.438Z,18.83
2022-10-10T23:56:58.245Z,23.05
2022-10-10T23:59:47.624Z,17.48
